createdAt,value
2019-04-07T00:02:16.381Z,75.40
2019-04-07T00:04:45.649Z,76.40
2019-04-07T00:07:14.735Z,78.80
2019-04-07T00:09:43.656Z,79.30
2019-04-07T00:12:12.597Z,80.80
2019-04-07T00:14:41.288Z,80.60
2019-04-07T00:17:10.496Z,80.90
2019-04-07T00:19:39.039Z,81.30
2019-04-07T00:22:07.941Z,81.80
2019-04-07T00:24:36.643Z,81.20
2019-04-07T00:27:05.681Z,81.30
2019-04-07T00:29:34.512Z,80.90
2019-04-07T00:32:03.544Z,80.70
2019-04-07T00:34:32.388Z,80.80
2019-04-07T00:37:00.948Z,80.40
2019-04-07T00:39:29.607Z,80.00
2019-04-07T00:41:58.395Z,79.20
2019-04-07T00:44:26.932Z,79.00
2019-04-07T00:46:55.441Z,79.10
2019-04-07T00:49:24.614Z,79.30
2019-04-07T00:51:54.982Z,79.00
2019-04-07T00:54:23.854Z,77.50
2019-04-07T00:56:52.806Z,78.20
2019-04-07T00:59:21.317Z,78.10
2019-04-07T01:01:50.347Z,77.80
2019-04-07T01:04:19.080Z,77.80
2019-04-07T01:06:48.265Z,76.50
2019-04-07T01:09:17.262Z,76.00
2019-04-07T01:11:45.916Z,76.00
2019-04-07T01:14:14.484Z,76.00
2019-04-07T01:16:43.031Z,76.00
2019-04-07T01:19:12.452Z,76.30
2019-04-07T01:21:40.952Z,76.80
2019-04-07T01:24:09.845Z,75.90
2019-04-07T01:26:39.299Z,76.80
2019-04-07T01:29:08.080Z,76.90
2019-04-07T01:31:38.012Z,76.80
2019-04-07T01:34:07.524Z,76.70
2019-04-07T01:36:36.175Z,76.20
2019-04-07T01:39:08.717Z,75.40
2019-04-07T01:41:41.749Z,75.50
2019-04-07T01:44:29.801Z,74.70
2019-04-07T01:47:00.020Z,73.70
2019-04-07T01:49:35.972Z,73.20
2019-04-07T01:52:15.203Z,73.50
2019-04-07T01:54:54.804Z,73.40
2019-04-07T01:57:37.052Z,74.20
2019-04-07T02:00:12.707Z,73.40
2019-04-07T02:02:58.963Z,72.70
2019-04-07T02:05:57.709Z,73.40
2019-04-07T02:08:19.853Z,73.70
2019-04-07T02:10:56.104Z,74.00
2019-04-07T02:13:29.069Z,73.80
2019-04-07T02:16:05.044Z,74.00
2019-04-07T02:18:38.787Z,74.60
2019-04-07T02:21:15.262Z,74.60
2019-04-07T02:23:48.308Z,74.90
2019-04-07T02:26:35.809Z,75.00
2019-04-07T02:29:22.530Z,74.20
2019-04-07T02:31:55.430Z,73.30
2019-04-07T02:34:25.859Z,73.70
2019-04-07T02:37:13.903Z,73.70
2019-04-07T02:39:47.006Z,73.60
2019-04-07T02:42:20.277Z,74.10
2019-04-07T02:44:55.532Z,74.60
2019-04-07T02:47:25.718Z,74.60
2019-04-07T02:50:04.536Z,74.50
2019-04-07T02:52:51.441Z,74.20
2019-04-07T02:55:30.433Z,74.00
2019-04-07T02:58:15.806Z,74.50
2019-04-07T03:00:54.829Z,74.20
2019-04-07T03:03:25.179Z,73.70
2019-04-07T03:05:56.219Z,74.50
2019-04-07T03:08:30.219Z,74.30
2019-04-07T03:11:03.045Z,75.60
2019-04-07T03:13:49.365Z,75.00
2019-04-07T03:16:35.376Z,75.10
2019-04-07T03:19:09.431Z,75.70
2019-04-07T03:21:55.419Z,75.70
2019-04-07T03:24:42.372Z,75.90
2019-04-07T03:27:16.447Z,75.90
2019-04-07T03:29:56.717Z,75.90
2019-04-07T03:32:45.978Z,76.20
2019-04-07T03:35:34.110Z,75.90
2019-04-07T03:38:15.270Z,76.30
2019-04-07T03:40:46.538Z,76.20
2019-04-07T03:43:33.004Z,76.40
2019-04-07T03:46:03.707Z,76.20
2019-04-07T03:48:43.452Z,77.00
2019-04-07T03:51:30.210Z,76.90
2019-04-07T03:54:12.769Z,77.20
2019-04-07T03:56:52.954Z,76.70
2019-04-07T03:59:36.453Z,76.60
2019-04-07T04:02:24.954Z,76.20
2019-04-07T04:04:55.648Z,77.10
2019-04-07T04:07:32.330Z,76.80
2019-04-07T04:09:58.248Z,76.80
2019-04-07T04:12:41.581Z,76.90
2019-04-07T04:15:15.211Z,77.10
2019-04-07T04:17:43.727Z,76.60
2019-04-07T04:20:13.660Z,77.10
2019-04-07T04:22:44.349Z,77.80
2019-04-07T04:25:13.974Z,76.80
2019-04-07T04:27:43.100Z,76.60
2019-04-07T04:30:12.610Z,76.50
2019-04-07T04:32:42.104Z,76.60
2019-04-07T04:35:10.946Z,77.10
2019-04-07T04:37:45.046Z,77.00
2019-04-07T04:40:10.728Z,76.90
2019-04-07T04:42:39.583Z,76.60
2019-04-07T04:45:08.898Z,76.20
2019-04-07T04:47:38.122Z,75.80
2019-04-07T04:50:09.859Z,75.30
2019-04-07T04:52:38.770Z,74.80
2019-04-07T04:55:07.934Z,73.90
2019-04-07T04:57:36.421Z,73.20
2019-04-07T05:00:10.295Z,72.70
2019-04-07T05:02:39.474Z,72.20
2019-04-07T05:05:09.531Z,72.50
2019-04-07T05:07:51.030Z,71.30
2019-04-07T05:10:10.308Z,70.70
2019-04-07T05:12:39.130Z,71.40
2019-04-07T05:15:10.859Z,71.70
2019-04-07T05:17:39.372Z,72.80
2019-04-07T05:20:09.117Z,73.80
2019-04-07T05:22:37.996Z,74.60
2019-04-07T05:25:08.540Z,75.00
2019-04-07T05:27:37.121Z,74.70
2019-04-07T05:30:07.796Z,75.40
2019-04-07T05:32:36.848Z,75.50
2019-04-07T05:35:07.915Z,76.00
2019-04-07T05:37:37.294Z,76.30
2019-04-07T05:40:06.612Z,76.50
2019-04-07T05:42:35.476Z,76.70
2019-04-07T05:45:06.630Z,77.40
2019-04-07T05:47:35.427Z,77.90
2019-04-07T05:50:06.231Z,78.20
2019-04-07T05:52:39.168Z,78.70
2019-04-07T05:55:07.738Z,79.50
2019-04-07T05:57:36.591Z,79.90
2019-04-07T06:00:08.313Z,80.00
2019-04-07T06:02:37.433Z,80.00
2019-04-07T06:05:07.345Z,79.70
2019-04-07T06:07:37.112Z,79.80
2019-04-07T06:10:09.135Z,79.30
2019-04-07T06:12:40.886Z,78.90
2019-04-07T06:15:10.781Z,78.40
2019-04-07T06:17:39.887Z,77.60
2019-04-07T06:20:12.075Z,77.40
2019-04-07T06:22:39.112Z,76.70
2019-04-07T06:25:09.554Z,75.60
2019-04-07T06:27:38.466Z,76.80
2019-04-07T06:30:08.794Z,75.90
2019-04-07T06:32:38.491Z,74.70
2019-04-07T06:35:08.511Z,72.10
2019-04-07T06:37:37.383Z,71.40
2019-04-07T06:40:06.716Z,71.50
2019-04-07T06:42:35.475Z,69.80
2019-04-07T06:45:07.487Z,69.30
2019-04-07T06:47:46.643Z,68.00
2019-04-07T06:50:16.993Z,66.40
2019-04-07T06:52:53.230Z,66.30
2019-04-07T06:55:39.651Z,65.40
2019-04-07T06:58:26.563Z,63.10
2019-04-07T07:01:02.309Z,58.50
2019-04-07T07:03:48.657Z,53.80
2019-04-07T07:06:37.333Z,51.20
2019-04-07T07:09:09.588Z,47.20
2019-04-07T07:11:52.422Z,45.00
2019-04-07T07:14:41.528Z,43.10
2019-04-07T07:17:06.386Z,41.70
2019-04-07T07:19:39.221Z,41.30
2019-04-07T07:22:18.837Z,41.70
2019-04-07T07:24:47.641Z,41.80
2019-04-07T07:27:16.478Z,39.70
2019-04-07T07:29:46.018Z,37.60
2019-04-07T07:32:15.929Z,36.30
2019-04-07T07:34:47.775Z,34.10
2019-04-07T07:37:16.470Z,33.80
2019-04-07T07:39:46.981Z,34.80
2019-04-07T07:42:15.595Z,36.30
2019-04-07T07:44:45.604Z,37.10
2019-04-07T07:47:14.561Z,36.60
2019-04-07T07:49:43.871Z,35.50
2019-04-07T07:52:12.602Z,39.70
2019-04-07T07:54:42.070Z,42.30
2019-04-07T07:57:11.209Z,45.20
2019-04-07T07:59:40.433Z,47.10
2019-04-07T08:02:10.970Z,46.70
2019-04-07T08:04:39.945Z,48.10
2019-04-07T08:07:11.789Z,52.20
2019-04-07T08:09:39.290Z,53.70
2019-04-07T08:12:08.338Z,53.30
2019-04-07T08:14:37.121Z,53.50
2019-04-07T08:17:06.008Z,53.40
2019-04-07T08:19:34.615Z,52.20
2019-04-07T08:22:03.213Z,52.90
2019-04-07T08:24:31.759Z,52.20
2019-04-07T08:27:00.341Z,54.90
2019-04-07T08:29:29.132Z,55.10
2019-04-07T08:31:58.719Z,57.10
2019-04-07T08:34:30.511Z,57.90
2019-04-07T08:36:57.501Z,58.60
2019-04-07T08:39:31.202Z,58.00
2019-04-07T08:41:57.170Z,58.10
2019-04-07T08:44:28.684Z,58.50
2019-04-07T08:46:57.973Z,59.50
2019-04-07T08:49:26.359Z,58.30
2019-04-07T08:51:54.964Z,58.80
2019-04-07T08:54:23.525Z,59.80
2019-04-07T08:56:52.098Z,59.50
2019-04-07T08:59:20.751Z,57.90
2019-04-07T09:01:52.250Z,54.40
2019-04-07T09:04:19.746Z,47.60
2019-04-07T09:06:48.863Z,40.00
2019-04-07T09:09:17.729Z,37.50
2019-04-07T09:11:46.934Z,34.80
2019-04-07T09:14:17.253Z,30.10
2019-04-07T09:17:03.379Z,28.40
2019-04-07T09:19:36.796Z,28.00
2019-04-07T09:22:23.308Z,29.20
2019-04-07T09:24:56.707Z,27.20
2019-04-07T09:27:27.441Z,25.90
2019-04-07T09:30:12.589Z,28.10
2019-04-07T09:32:59.562Z,31.70
2019-04-07T09:35:32.469Z,36.70
2019-04-07T09:38:03.216Z,39.40
2019-04-07T09:40:33.997Z,41.80
2019-04-07T09:43:22.533Z,41.80
2019-04-07T09:45:58.441Z,37.30
2019-04-07T09:48:48.806Z,33.70
2019-04-07T09:51:37.611Z,33.70
2019-04-07T09:54:13.212Z,35.70
2019-04-07T09:56:49.736Z,39.00
2019-04-07T09:59:20.315Z,40.60
2019-04-07T10:02:06.045Z,37.50
2019-04-07T10:04:37.928Z,34.20
2019-04-07T10:07:15.025Z,28.40
2019-04-07T10:09:47.239Z,27.80
2019-04-07T10:12:19.670Z,30.60
2019-04-07T10:14:53.153Z,32.10
2019-04-07T10:17:23.321Z,29.00
2019-04-07T10:20:02.405Z,26.40
2019-04-07T10:22:32.571Z,26.70
2019-04-07T10:25:09.301Z,26.50
2019-04-07T10:27:49.486Z,27.90
2019-04-07T10:30:39.300Z,31.00
2019-04-07T10:33:19.086Z,34.20
2019-04-07T10:35:55.391Z,37.80
2019-04-07T10:38:29.224Z,39.50
2019-04-07T10:41:08.472Z,41.80
2019-04-07T10:43:45.215Z,40.80
2019-04-07T10:46:21.555Z,38.90
2019-04-07T10:49:09.193Z,37.60
2019-04-07T10:51:54.636Z,33.50
2019-04-07T10:54:27.696Z,34.20
2019-04-07T10:56:59.878Z,34.70
2019-04-07T10:59:30.840Z,33.00
2019-04-07T11:02:18.003Z,31.80
2019-04-07T11:04:54.105Z,28.80
2019-04-07T11:07:30.207Z,26.80
2019-04-07T11:10:01.186Z,25.90
2019-04-07T11:12:49.687Z,25.20
2019-04-07T11:15:36.989Z,25.70
2019-04-07T11:18:07.642Z,25.90
2019-04-07T11:20:41.099Z,26.40
2019-04-07T11:23:28.541Z,25.70
2019-04-07T11:26:11.282Z,25.70
2019-04-07T11:28:48.052Z,25.80
2019-04-07T11:31:21.205Z,25.10
2019-04-07T11:33:57.223Z,25.70
2019-04-07T11:36:31.001Z,25.60
2019-04-07T11:39:04.096Z,27.40
2019-04-07T11:41:46.138Z,27.20
2019-04-07T11:44:20.197Z,28.00
2019-04-07T11:46:57.516Z,28.60
2019-04-07T11:49:27.769Z,28.00
2019-04-07T11:52:00.552Z,27.60
2019-04-07T11:54:30.924Z,28.20
2019-04-07T11:57:04.456Z,28.30
2019-04-07T11:59:51.370Z,28.10
2019-04-07T12:02:33.419Z,29.30
2019-04-07T12:05:04.297Z,28.40
2019-04-07T12:07:35.508Z,30.00
2019-04-07T12:10:09.596Z,31.50
2019-04-07T12:12:51.469Z,32.80
2019-04-07T12:15:26.945Z,37.80
2019-04-07T12:18:16.804Z,39.20
2019-04-07T12:20:45.100Z,37.90
2019-04-07T12:23:30.684Z,36.70
2019-04-07T12:26:18.910Z,36.10
2019-04-07T12:29:05.868Z,36.90
2019-04-07T12:31:37.598Z,38.00
2019-04-07T12:34:14.396Z,38.70
2019-04-07T12:36:46.488Z,39.40
2019-04-07T12:39:22.633Z,39.70
2019-04-07T12:42:09.902Z,40.20
2019-04-07T12:44:57.055Z,39.80
2019-04-07T12:47:33.327Z,37.20
2019-04-07T12:50:04.077Z,35.80
2019-04-07T12:52:34.503Z,35.40
2019-04-07T12:55:08.109Z,36.50
2019-04-07T12:57:53.419Z,34.20
2019-04-07T13:00:53.004Z,34.20
2019-04-07T13:03:25.339Z,35.00
2019-04-07T13:05:59.113Z,34.90
2019-04-07T13:08:32.307Z,36.30
2019-04-07T13:11:30.099Z,37.80
2019-04-07T13:13:52.759Z,38.50
2019-04-07T13:16:29.512Z,38.00
2019-04-07T13:19:16.307Z,37.70
2019-04-07T13:21:56.380Z,36.50
2019-04-07T13:24:44.007Z,36.20
2019-04-07T13:27:12.436Z,36.60
2019-04-07T13:29:43.345Z,35.50
2019-04-07T13:32:22.444Z,35.20
2019-04-07T13:35:08.876Z,36.20
2019-04-07T13:37:44.894Z,35.20
2019-04-07T13:40:18.350Z,34.90
2019-04-07T13:43:05.694Z,35.10
2019-04-07T13:45:55.756Z,33.60
2019-04-07T13:48:32.270Z,33.60
2019-04-07T13:51:18.193Z,33.50
2019-04-07T13:53:48.547Z,34.50
2019-04-07T13:56:35.375Z,35.60
2019-04-07T13:59:08.374Z,36.10
2019-04-07T14:01:37.559Z,35.90
2019-04-07T14:04:13.607Z,36.80
2019-04-07T14:06:45.916Z,36.70
2019-04-07T14:09:19.261Z,37.80
2019-04-07T14:12:02.029Z,37.50
2019-04-07T14:14:38.306Z,37.00
2019-04-07T14:17:27.310Z,35.80
2019-04-07T14:20:07.064Z,36.20
2019-04-07T14:22:50.408Z,36.00
2019-04-07T14:25:20.975Z,35.70
2019-04-07T14:28:06.332Z,35.90
2019-04-07T14:30:54.029Z,34.90
2019-04-07T14:33:30.782Z,36.40
2019-04-07T14:36:11.773Z,36.70
2019-04-07T14:38:48.003Z,37.10
2019-04-07T14:41:21.149Z,37.30
2019-04-07T14:44:08.435Z,37.20
2019-04-07T14:46:55.602Z,37.10
2019-04-07T14:49:29.628Z,37.10
2019-04-07T14:52:06.769Z,36.40
2019-04-07T14:54:46.758Z,36.00
2019-04-07T14:57:17.060Z,36.50
2019-04-07T14:59:47.375Z,36.50
2019-04-07T15:02:17.094Z,37.00
2019-04-07T15:04:47.786Z,37.10
2019-04-07T15:07:26.954Z,37.20
2019-04-07T15:10:01.088Z,36.50
2019-04-07T15:12:34.906Z,34.70
2019-04-07T15:15:08.928Z,34.80
2019-04-07T15:17:37.046Z,34.20
2019-04-07T15:20:07.590Z,34.20
2019-04-07T15:22:36.816Z,34.80
2019-04-07T15:25:07.629Z,34.40
2019-04-07T15:27:36.955Z,34.20
2019-04-07T15:30:10.615Z,34.70
2019-04-07T15:32:38.362Z,34.80
2019-04-07T15:35:11.942Z,35.60
2019-04-07T15:37:39.819Z,35.60
2019-04-07T15:40:09.155Z,35.90
2019-04-07T15:42:41.871Z,35.70
2019-04-07T15:45:12.037Z,35.60
2019-04-07T15:47:40.448Z,35.70
2019-04-07T15:50:10.007Z,35.00
2019-04-07T15:52:42.143Z,35.70
2019-04-07T15:55:11.465Z,35.30
2019-04-07T15:57:39.313Z,36.60
2019-04-07T16:00:08.811Z,36.70
2019-04-07T16:02:40.937Z,37.20
2019-04-07T16:05:07.906Z,37.70
2019-04-07T16:07:37.258Z,38.20
2019-04-07T16:10:08.764Z,38.60
2019-04-07T16:12:45.176Z,39.10
2019-04-07T16:15:07.928Z,39.60
2019-04-07T16:17:37.251Z,39.50
2019-04-07T16:20:19.851Z,39.70
2019-04-07T16:22:38.463Z,40.20
2019-04-07T16:25:10.081Z,40.60
2019-04-07T16:27:39.703Z,40.90
2019-04-07T16:30:10.086Z,41.40
2019-04-07T16:32:39.143Z,41.70
2019-04-07T16:35:13.044Z,42.40
2019-04-07T16:37:40.179Z,42.60
2019-04-07T16:40:11.659Z,43.10
2019-04-07T16:42:40.446Z,43.50
2019-04-07T16:45:13.784Z,43.70
2019-04-07T16:47:39.642Z,44.10
2019-04-07T16:50:09.608Z,44.30
2019-04-07T16:52:38.188Z,44.70
2019-04-07T16:55:09.846Z,45.30
2019-04-07T16:57:39.975Z,46.00
2019-04-07T17:00:15.303Z,46.40
2019-04-07T17:02:44.986Z,47.00
2019-04-07T17:05:14.185Z,47.50
2019-04-07T17:07:45.518Z,48.00
2019-04-07T17:10:14.248Z,48.50
2019-04-07T17:12:42.828Z,48.90
2019-04-07T17:15:12.297Z,49.20
2019-04-07T17:17:41.043Z,49.70
2019-04-07T17:20:10.141Z,50.30
2019-04-07T17:22:38.732Z,50.50
2019-04-07T17:25:09.920Z,50.80
2019-04-07T17:27:40.938Z,51.40
2019-04-07T17:30:17.557Z,51.60
2019-04-07T17:32:46.897Z,52.10
2019-04-07T17:35:17.521Z,52.40
2019-04-07T17:37:47.170Z,52.90
2019-04-07T17:40:18.489Z,52.80
2019-04-07T17:42:50.804Z,53.20
2019-04-07T17:45:35.482Z,53.50
2019-04-07T17:48:23.317Z,54.00
2019-04-07T17:50:54.167Z,53.80
2019-04-07T17:53:30.034Z,54.10
2019-04-07T17:56:01.132Z,54.20
2019-04-07T17:58:32.056Z,54.60
2019-04-07T18:01:23.393Z,54.50
2019-04-07T18:04:00.653Z,54.50
2019-04-07T18:06:33.475Z,54.50
2019-04-07T18:09:09.123Z,54.70
2019-04-07T18:11:35.610Z,55.10
2019-04-07T18:14:12.650Z,55.10
2019-04-07T18:16:48.380Z,55.20
2019-04-07T18:19:31.809Z,55.60
2019-04-07T18:22:02.342Z,56.10
2019-04-07T18:24:33.006Z,56.40
2019-04-07T18:27:17.836Z,56.50
2019-04-07T18:30:03.861Z,56.50
2019-04-07T18:32:35.020Z,56.70
2019-04-07T18:35:15.614Z,56.80
2019-04-07T18:37:46.315Z,56.80
2019-04-07T18:40:19.943Z,56.90
2019-04-07T18:42:53.692Z,56.80
2019-04-07T18:45:25.715Z,56.80
2019-04-07T18:48:02.266Z,56.80
2019-04-07T18:50:32.831Z,56.90
2019-04-07T18:53:12.331Z,57.00
2019-04-07T18:55:51.487Z,57.20
2019-04-07T18:58:24.742Z,57.20
2019-04-07T19:01:07.419Z,57.70
2019-04-07T19:03:51.949Z,57.80
2019-04-07T19:06:30.071Z,58.50
2019-04-07T19:09:01.426Z,58.60
2019-04-07T19:11:35.276Z,58.70
2019-04-07T19:14:30.638Z,58.80
2019-04-07T19:16:55.156Z,59.30
2019-04-07T19:19:26.433Z,59.80
2019-04-07T19:21:57.297Z,59.80
2019-04-07T19:24:43.630Z,60.10
2019-04-07T19:27:31.403Z,60.70
2019-04-07T19:30:20.497Z,61.20
2019-04-07T19:32:57.861Z,61.00
2019-04-07T19:35:38.631Z,61.00
2019-04-07T19:38:08.604Z,61.30
2019-04-07T19:40:49.193Z,61.20
2019-04-07T19:43:35.173Z,61.90
2019-04-07T19:46:21.208Z,62.20
2019-04-07T19:48:54.403Z,63.10
2019-04-07T19:51:29.283Z,63.90
2019-04-07T19:54:06.515Z,64.20
2019-04-07T19:56:37.202Z,64.90
2019-04-07T19:59:11.376Z,65.60
2019-04-07T20:01:44.454Z,65.70
2019-04-07T20:04:18.361Z,65.90
2019-04-07T20:07:05.097Z,66.40
2019-04-07T20:09:50.556Z,66.80
2019-04-07T20:12:39.538Z,66.90
2019-04-07T20:15:16.733Z,66.60
2019-04-07T20:17:58.437Z,66.80
2019-04-07T20:20:31.390Z,67.20
2019-04-07T20:23:07.302Z,66.90
2019-04-07T20:25:41.042Z,66.90
2019-04-07T20:28:20.892Z,67.10
2019-04-07T20:31:08.919Z,67.20
2019-04-07T20:33:42.512Z,66.70
2019-04-07T20:36:20.143Z,66.80
2019-04-07T20:38:44.281Z,67.70
2019-04-07T20:41:33.785Z,66.50
2019-04-07T20:44:25.813Z,66.40
2019-04-07T20:47:06.639Z,66.60
2019-04-07T20:49:53.407Z,67.00
2019-04-07T20:52:26.300Z,66.90
2019-04-07T20:55:05.452Z,67.10
2019-04-07T20:57:54.035Z,67.40
2019-04-07T21:00:24.956Z,67.70
2019-04-07T21:03:08.954Z,67.90
2019-04-07T21:05:36.161Z,68.50
2019-04-07T21:08:23.301Z,68.70
2019-04-07T21:10:56.080Z,68.80
2019-04-07T21:13:34.745Z,69.10
2019-04-07T21:16:04.926Z,69.50
2019-04-07T21:18:46.948Z,69.30
2019-04-07T21:21:19.807Z,69.50
2019-04-07T21:24:06.444Z,69.70
2019-04-07T21:26:57.978Z,70.10
2019-04-07T21:29:30.163Z,70.50
2019-04-07T21:32:08.840Z,70.40
2019-04-07T21:34:41.096Z,70.10
2019-04-07T21:37:27.254Z,69.90
2019-04-07T21:40:14.338Z,70.30
2019-04-07T21:42:54.108Z,70.50
2019-04-07T21:45:45.219Z,71.00
2019-04-07T21:48:28.620Z,71.50
2019-04-07T21:50:58.393Z,72.00
2019-04-07T21:53:30.887Z,72.40
2019-04-07T21:56:01.687Z,73.30
2019-04-07T21:58:32.159Z,73.10
2019-04-07T22:01:06.754Z,73.40
2019-04-07T22:03:49.688Z,73.40
2019-04-07T22:06:29.825Z,72.70
2019-04-07T22:09:02.224Z,72.80
2019-04-07T22:11:30.833Z,72.30
2019-04-07T22:13:59.472Z,72.40
2019-04-07T22:16:31.438Z,72.30
2019-04-07T22:19:01.137Z,72.20
2019-04-07T22:21:29.785Z,72.00
2019-04-07T22:23:58.567Z,72.20
2019-04-07T22:26:27.542Z,72.40
2019-04-07T22:28:56.942Z,72.50
2019-04-07T22:31:31.246Z,72.60
2019-04-07T22:34:01.220Z,72.50
2019-04-07T22:36:30.053Z,72.60
2019-04-07T22:39:00.970Z,72.70
2019-04-07T22:41:28.932Z,72.50
2019-04-07T22:43:57.493Z,72.60
2019-04-07T22:46:27.278Z,72.20
2019-04-07T22:48:58.317Z,71.90
2019-04-07T22:51:26.324Z,71.70
2019-04-07T22:53:57.374Z,71.60
2019-04-07T22:56:25.215Z,72.40
2019-04-07T22:58:54.132Z,72.80
2019-04-07T23:01:23.060Z,73.40
2019-04-07T23:03:51.804Z,73.30
2019-04-07T23:06:21.068Z,73.30
2019-04-07T23:08:49.835Z,73.60
2019-04-07T23:11:18.485Z,73.90
2019-04-07T23:13:48.005Z,74.50
2019-04-07T23:16:17.982Z,75.00
2019-04-07T23:18:47.148Z,75.20
2019-04-07T23:21:15.717Z,75.70
2019-04-07T23:23:44.312Z,76.00
2019-04-07T23:26:13.808Z,75.90
2019-04-07T23:28:42.623Z,75.60
2019-04-07T23:31:11.724Z,75.20
2019-04-07T23:33:40.379Z,75.00
2019-04-07T23:36:09.459Z,74.40
2019-04-07T23:38:38.994Z,74.80
2019-04-07T23:41:07.682Z,75.50
2019-04-07T23:43:36.252Z,75.60
2019-04-07T23:46:05.158Z,76.00
2019-04-07T23:48:34.721Z,77.60
2019-04-07T23:51:03.743Z,77.00
2019-04-07T23:54:11.023Z,76.70
2019-04-07T23:56:42.067Z,76.20
2019-04-07T23:59:11.476Z,75.90
